KCTZ/CTZ METAR and TAF weather

Enter ICAO airport designator
Station Type Date Time Source
KCTZ METAR 2021/05/15 23:55 UTC NOAA

KCTZ 152355Z AUTO 00000KT 10SM CLR 21/06 A3019 RMK AO2 T02050062 10257 20205


Station Type Date Time Source
KCTZ Decoded METAR 2021/05/15 23:55 UTC NOAA

Clinton, Sampson County Airport, NC, United States (KCTZ) 34-58-32N 078-21-53W
May 15, 2021 - 07:55 PM EDT / 2021.05.15 2355 UTC
Wind: Calm:0
Visibility: 10 mile(s):0
Sky conditions: clear
Temperature: 68.9 F (20.5 C)
Dew Point: 43.2 F (6.2 C)
Relative Humidity: 39%
Pressure (altimeter): 30.19 in. Hg (1022 hPa)
ob: KCTZ 152355Z AUTO 00000KT 10SM CLR 21/06 A3019 RMK AO2 T02050062 10257 20205
cycle: 0

Station Type Date Time Source
KCTZ TAF UTC NOAA

Error!

Example: see airport list